Taxiarchis — SV8566 — position and weather

sailwx.info

Track history (hours):
 
Tides and Currents Weather Stations Pressure Air Temp Water Temp Dewpoint Dewpoint Depression Visibility Wind Speed Wind Dir Waves Ship Positions

Taxiarchis

Last reported at 2018-Feb-06 14:00 UTC. Time now 2018-Feb-19 04:29 UTC.
Position N 37°57' E 023°37'.
Warning: this ship's position is 12 days out of date.

Length 33 m; draft 5 m.

Type: Tug. MMSI: 239642000.

Date/timePositionNaut miles runAvg speedWind from/ knotsBaromVisibWave heightAir tempDewpointWater temp
2018-Feb-06 14:00N 37°57' E 023°37'0 0.0
2018-Feb-06 13:30N 37°57' E 023°37'0 0.0
2018-Feb-06 11:00N 37°57' E 023°37'0 0.0
2018-Feb-06 10:30N 37°57' E 023°37'0 0.0
2018-Feb-06 09:30N 37°57' E 023°37'3 1.6
2018-Feb-06 07:30N 37°58' E 023°33'3 6.1
2018-Feb-06 07:00N 37°57' E 023°37'0 0.0
2018-Feb-06 06:30N 37°57' E 023°37'0 0.0
2018-Feb-06 04:30N 37°57' E 023°37'0 0.0
2018-Feb-06 04:00N 37°57' E 023°37'0 0.0
2018-Feb-06 02:29N 37°57' E 023°37'0 0.0
2018-Feb-06 02:00N 37°57' E 023°37'0 0.0
2018-Feb-06 01:00N 37°57' E 023°37'0 0.0
2018-Feb-06 00:30N 37°57' E 023°37'1 0.9
2018-Feb-05 23:00N 37°56' E 023°36'2 3.0
2018-Feb-05 22:30N 37°57' E 023°35'1 0.2
2018-Feb-05 17:30N 37°57' E 023°37'0 0.0
2018-Feb-05 15:30N 37°57' E 023°37'0 0.0
2018-Feb-05 15:00N 37°57' E 023°37'0 0.0
2018-Feb-05 13:30N 37°57' E 023°37'0 0.0
2018-Feb-05 11:59N 37°57' E 023°37'1 0.3
2018-Feb-05 09:00N 37°57' E 023°36'2 3.4
2018-Feb-05 08:30N 37°58' E 023°34'1 1.4
2018-Feb-05 08:01N 37°57' E 023°34'3 5.0
2018-Feb-05 07:30N 37°56' E 023°37'1 1.2
2018-Feb-05 07:00N 37°57' E 023°38'0 0.1
2018-Feb-05 06:31N 37°57' E 023°38'2 1.7
2018-Feb-05 05:30N 37°57' E 023°36'0 0.2
2018-Feb-05 05:00N 37°57' E 023°36'1 1.1
2018-Feb-05 04:30N 37°57' E 023°37'0 0.0
2018-Feb-05 04:00N 37°57' E 023°37'0 0.0
2018-Feb-04 12:03N 37°57' E 023°37'0 0.0
2018-Feb-04 12:00N 37°57' E 023°37'0 0.0
2018-Feb-04 11:30N 37°57' E 023°37'1 0.6
2018-Feb-04 10:00N 37°57' E 023°36'1 1.0
2018-Feb-04 09:00N 37°58' E 023°36'0 0.1
2018-Feb-04 08:30N 37°58' E 023°36'1 1.4
2018-Feb-04 08:00N 37°57' E 023°36'0 0.6
2018-Feb-04 07:30N 37°57' E 023°36'0 0.0
2018-Feb-04 07:00N 37°57' E 023°36'0 0.0
2018-Feb-04 06:30N 37°57' E 023°36'0 0.1
2018-Feb-04 06:01N 37°57' E 023°36'0 0.1
2018-Feb-04 05:30N 37°57' E 023°36'1 1.3
2018-Feb-04 05:00N 37°57' E 023°37'0 0.0
2018-Feb-04 04:30N 37°57' E 023°37'0 0.0
2018-Feb-04 04:00N 37°57' E 023°37'0 0.0
2018-Feb-02 12:56N 37°57' E 023°37'1 1.6
2018-Feb-02 12:30N 37°57' E 023°36'0 0.8
2018-Feb-02 12:00N 37°57' E 023°36'1 1.7
2018-Feb-02 11:30N 37°58' E 023°36'0 0.8
2018-Feb-02 11:00N 37°57' E 023°36'1 1.1
2018-Feb-02 10:30N 37°57' E 023°36'0 0.2
2018-Feb-02 10:00N 37°57' E 023°37'0 0.0
2018-Feb-02 09:30N 37°57' E 023°37'0 0.0
2018-Feb-02 09:00N 37°57' E 023°37'0 0.0
2018-Feb-02 08:29N 37°57' E 023°37'0 0.0
2018-Feb-02 07:59N 37°57' E 023°37'0 0.0
2018-Feb-02 07:30N 37°57' E 023°37'0 0.0
2018-Feb-02 07:00N 37°57' E 023°37'0 0.0
2018-Feb-02 06:30N 37°57' E 023°37'0 0.0
2018-Feb-02 05:58N 37°57' E 023°37'1 1.4
2018-Feb-02 05:30N 37°57' E 023°36'1 1.3
2018-Feb-02 04:59N 37°57' E 023°37'0 0.1
2018-Feb-02 04:29N 37°57' E 023°37'0 0.0
2018-Feb-02 03:59N 37°57' E 023°37'0 0.0
2018-Feb-01 17:15N 37°57' E 023°37'0 1.6
2018-Feb-01 17:00N 37°57' E 023°36'4 7.5
2018-Feb-01 16:31N 38°00' E 023°34'2 4.3
2018-Feb-01 16:01N 38°02' E 023°35'0 0.0
2018-Feb-01 15:31N 38°02' E 023°35'0 0.0
2018-Feb-01 15:01N 38°02' E 023°35'0 0.0
2018-Feb-01 13:29N 38°02' E 023°35'0 0.0
2018-Feb-01 13:00N 38°02' E 023°35'0 0.0
2018-Feb-01 12:30N 38°02' E 023°35'0 0.0
2018-Feb-01 12:00N 38°02' E 023°35'0 0.0
2018-Feb-01 11:00N 38°02' E 023°35'0 0.0
2018-Feb-01 10:30N 38°02' E 023°35'0 0.0
2018-Feb-01 10:00N 38°02' E 023°35'0 0.0
2018-Feb-01 09:30N 38°02' E 023°35'0 0.0
2018-Feb-01 09:01N 38°02' E 023°35'0 0.0
2018-Feb-01 08:30N 38°02' E 023°35'0 0.0
2018-Feb-01 07:30N 38°02' E 023°35'0 0.0
2018-Feb-01 07:01N 38°02' E 023°35'0 0.0
2018-Feb-01 06:30N 38°02' E 023°35'1 1.1
2018-Feb-01 06:00N 38°02' E 023°35'4 7.0
2018-Feb-01 05:30N 37°58' E 023°33'3 6.2
2018-Feb-01 05:00N 37°57' E 023°37'0 0.0
2018-Feb-01 04:29N 37°57' E 023°37'0 0.0
2018-Feb-01 04:00N 37°57' E 023°37'0 0.0
2018-Jan-31 11:12N 37°57' E 023°37'0 0.0
2018-Jan-31 11:00N 37°57' E 023°37'0 0.0
2018-Jan-31 10:30N 37°57' E 023°37'0 0.0
2018-Jan-31 09:59N 37°57' E 023°37'0 0.0
2018-Jan-31 09:30N 37°57' E 023°37'0 0.0
2018-Jan-31 08:57N 37°57' E 023°37'0 0.0
2018-Jan-31 08:29N 37°57' E 023°37'0 0.0
2018-Jan-31 07:59N 37°57' E 023°37'0 0.0
2018-Jan-31 07:29N 37°57' E 023°37'0 0.0
2018-Jan-31 07:00N 37°57' E 023°37'0 0.0
2018-Jan-31 06:26N 37°57' E 023°37'0 0.0
2018-Jan-31 06:00N 37°57' E 023°37'0 0.0
2018-Jan-31 05:29N 37°57' E 023°37'0 0.0
2018-Jan-31 04:59N 37°57' E 023°37'0 0.0
2018-Jan-31 04:30N 37°57' E 023°37'0 0.0
2018-Jan-31 03:54N 37°57' E 023°37'0 0.0
2018-Jan-31 03:29N 37°57' E 023°37'0 0.0
2018-Jan-31 03:00N 37°57' E 023°37'0 0.0
2018-Jan-31 02:27N 37°57' E 023°37'0 0.0
2018-Jan-31 02:00N 37°57' E 023°37'0 0.1
2018-Jan-31 01:30N 37°57' E 023°37'1 1.3
2018-Jan-31 01:00N 37°57' E 023°36'1 0.6
2018-Jan-30 23:55N 37°57' E 023°37'0 0.0
2018-Jan-30 23:30N 37°57' E 023°37'0 0.0
2018-Jan-30 23:00N 37°57' E 023°37'0 0.0
2018-Jan-30 22:28N 37°57' E 023°37'0 0.0
2018-Jan-30 21:28N 37°57' E 023°37'0 0.0
2018-Jan-30 20:59N 37°57' E 023°37'0 0.0
2018-Jan-30 20:27N 37°57' E 023°37'0 0.0
2018-Jan-30 19:59N 37°57' E 023°37'0 0.0
2018-Jan-30 19:29N 37°57' E 023°37'0 0.0
2018-Jan-30 19:00N 37°57' E 023°37'0 0.0
2018-Jan-30 18:30N 37°57' E 023°37'0 0.0
2018-Jan-30 17:58N 37°57' E 023°37'0 0.6
2018-Jan-30 17:30N 37°57' E 023°36'0 0.5
2018-Jan-30 16:58N 37°57' E 023°37'0 0.0
2018-Jan-30 16:15N 37°57' E 023°37'0 0.0
2018-Jan-30 16:00N 37°57' E 023°37'0 0.0
2018-Jan-30 15:30N 37°57' E 023°37'0 0.8
2018-Jan-30 14:59N 37°57' E 023°36'1 1.2
2018-Jan-30 14:30N 37°57' E 023°36'1 0.7
2018-Jan-30 13:30N 37°57' E 023°37'0 0.0
2018-Jan-30 13:00N 37°57' E 023°37'0 0.0
2018-Jan-30 12:30N 37°57' E 023°37'0 0.0
2018-Jan-30 12:00N 37°57' E 023°37'1 1.3
2018-Jan-30 11:30N 37°57' E 023°36'1 0.6
2018-Jan-30 10:30N 37°57' E 023°37'0 0.0
2018-Jan-30 09:30N 37°57' E 023°37'0 0.0
2018-Jan-30 09:00N 37°57' E 023°37'0 0.0
2018-Jan-30 08:30N 37°57' E 023°37'0 0.5
2018-Jan-30 08:00N 37°58' E 023°36'1 1.2
2018-Jan-30 07:30N 37°57' E 023°36'1 1.1
2018-Jan-30 07:00N 37°57' E 023°36'1 1.3
2018-Jan-30 06:30N 37°57' E 023°37'0 0.0
2018-Jan-30 06:00N 37°57' E 023°37'0 0.0
2018-Jan-30 05:30N 37°57' E 023°37'1 1.8
2018-Jan-30 05:00N 37°57' E 023°35'1 1.7
2018-Jan-30 04:30N 37°58' E 023°36'0 0.8
2018-Jan-30 04:00N 37°57' E 023°37'0 0.0
2018-Jan-28 22:15N 37°57' E 023°37'1 2.4
2018-Jan-28 22:00N 37°57' E 023°36'0 0.6
2018-Jan-28 21:30N 37°57' E 023°36'1 1.3
2018-Jan-28 21:00N 37°57' E 023°37'0 0.1
2018-Jan-28 20:30N 37°57' E 023°37'0 0.0
2018-Jan-28 20:00N 37°57' E 023°37'0 0.7
2018-Jan-28 19:30N 37°57' E 023°36'0 0.8
2018-Jan-28 19:00N 37°57' E 023°36'1 1.3
2018-Jan-28 18:30N 37°57' E 023°37'0 0.0
2018-Jan-28 18:00N 37°57' E 023°37'2 3.6
2018-Jan-28 17:30N 37°57' E 023°34'4 7.9
2018-Jan-28 17:00N 38°01' E 023°35'1 1.4
2018-Jan-28 16:30N 38°01' E 023°34'4 7.4
2018-Jan-28 16:00N 37°57' E 023°36'1 1.7
2018-Jan-28 15:30N 37°57' E 023°37'0 0.0
2018-Jan-28 15:00N 37°57' E 023°37'0 0.0
2018-Jan-28 14:30N 37°57' E 023°37'0 0.0
2018-Jan-28 14:00N 37°57' E 023°37'0 0.0
2018-Jan-28 13:30N 37°57' E 023°37'0 0.0
2018-Jan-28 13:00N 37°57' E 023°37'1 2.7
2018-Jan-28 12:30N 37°57' E 023°35'1 1.1
2018-Jan-28 12:00N 37°57' E 023°36'1 1.7
2018-Jan-28 11:30N 37°57' E 023°37'0 0.0
2018-Jan-28 11:00N 37°57' E 023°37'0 0.0
2018-Jan-28 10:30N 37°57' E 023°37'0 0.0
2018-Jan-28 10:00N 37°57' E 023°37'0 0.0
2018-Jan-28 09:30N 37°57' E 023°37'1 2.1
2018-Jan-28 09:00N 37°57' E 023°35'1 2.1
2018-Jan-28 08:30N 37°57' E 023°37'0 0.0
2018-Jan-28 08:00N 37°57' E 023°37'0 0.0
2018-Jan-28 07:30N 37°57' E 023°37'0 0.0
2018-Jan-28 07:00N 37°57' E 023°37'0 0.0
2018-Jan-28 06:30N 37°57' E 023°37'0 0.9
2018-Jan-28 06:00N 37°57' E 023°36'1 1.8
2018-Jan-28 05:30N 37°56' E 023°36'1 1.7
2018-Jan-28 05:00N 37°57' E 023°35'0 0.9
2018-Jan-28 04:30N 37°57' E 023°35'1 2.7
2018-Jan-28 04:00N 37°57' E 023°37'  
Track history (hours):
 
Tides and Currents Weather Stations Pressure Air Temp Water Temp Dewpoint Dewpoint Depression Visibility Wind Speed Wind Dir Waves Ship Positions

Taxiarchis

Last reported at 2018-Feb-06 14:00 UTC. Time now 2018-Feb-19 04:29 UTC.
Position N 37°57' E 023°37'.
Warning: this ship's position is 12 days out of date.

Length 33 m; draft 5 m.

Type: Tug. MMSI: 239642000.

Date/timePositionNaut miles runAvg speedWind from/ knotsBaromVisibWave heightAir tempDewpointWater temp
2018-Feb-06 14:00N 37°57' E 023°37'0 0.0
2018-Feb-06 13:30N 37°57' E 023°37'0 0.0
2018-Feb-06 11:00N 37°57' E 023°37'0 0.0
2018-Feb-06 10:30N 37°57' E 023°37'0 0.0
2018-Feb-06 09:30N 37°57' E 023°37'3 1.6
2018-Feb-06 07:30N 37°58' E 023°33'3 6.1
2018-Feb-06 07:00N 37°57' E 023°37'0 0.0
2018-Feb-06 06:30N 37°57' E 023°37'0 0.0
2018-Feb-06 04:30N 37°57' E 023°37'0 0.0
2018-Feb-06 04:00N 37°57' E 023°37'0 0.0
2018-Feb-06 02:29N 37°57' E 023°37'0 0.0
2018-Feb-06 02:00N 37°57' E 023°37'0 0.0
2018-Feb-06 01:00N 37°57' E 023°37'0 0.0
2018-Feb-06 00:30N 37°57' E 023°37'1 0.9
2018-Feb-05 23:00N 37°56' E 023°36'2 3.0
2018-Feb-05 22:30N 37°57' E 023°35'1 0.2
2018-Feb-05 17:30N 37°57' E 023°37'0 0.0
2018-Feb-05 15:30N 37°57' E 023°37'0 0.0
2018-Feb-05 15:00N 37°57' E 023°37'0 0.0
2018-Feb-05 13:30N 37°57' E 023°37'0 0.0
2018-Feb-05 11:59N 37°57' E 023°37'1 0.3
2018-Feb-05 09:00N 37°57' E 023°36'2 3.4
2018-Feb-05 08:30N 37°58' E 023°34'1 1.4
2018-Feb-05 08:01N 37°57' E 023°34'3 5.0
2018-Feb-05 07:30N 37°56' E 023°37'1 1.2
2018-Feb-05 07:00N 37°57' E 023°38'0 0.1
2018-Feb-05 06:31N 37°57' E 023°38'2 1.7
2018-Feb-05 05:30N 37°57' E 023°36'0 0.2
2018-Feb-05 05:00N 37°57' E 023°36'1 1.1
2018-Feb-05 04:30N 37°57' E 023°37'0 0.0
2018-Feb-05 04:00N 37°57' E 023°37'0 0.0
2018-Feb-04 12:03N 37°57' E 023°37'0 0.0
2018-Feb-04 12:00N 37°57' E 023°37'0 0.0
2018-Feb-04 11:30N 37°57' E 023°37'1 0.6
2018-Feb-04 10:00N 37°57' E 023°36'1 1.0
2018-Feb-04 09:00N 37°58' E 023°36'0 0.1
2018-Feb-04 08:30N 37°58' E 023°36'1 1.4
2018-Feb-04 08:00N 37°57' E 023°36'0 0.6
2018-Feb-04 07:30N 37°57' E 023°36'0 0.0
2018-Feb-04 07:00N 37°57' E 023°36'0 0.0
2018-Feb-04 06:30N 37°57' E 023°36'0 0.1
2018-Feb-04 06:01N 37°57' E 023°36'0 0.1
2018-Feb-04 05:30N 37°57' E 023°36'1 1.3
2018-Feb-04 05:00N 37°57' E 023°37'0 0.0
2018-Feb-04 04:30N 37°57' E 023°37'0 0.0
2018-Feb-04 04:00N 37°57' E 023°37'0 0.0
2018-Feb-02 12:56N 37°57' E 023°37'1 1.6
2018-Feb-02 12:30N 37°57' E 023°36'0 0.8
2018-Feb-02 12:00N 37°57' E 023°36'1 1.7
2018-Feb-02 11:30N 37°58' E 023°36'0 0.8
2018-Feb-02 11:00N 37°57' E 023°36'1 1.1
2018-Feb-02 10:30N 37°57' E 023°36'0 0.2
2018-Feb-02 10:00N 37°57' E 023°37'0 0.0
2018-Feb-02 09:30N 37°57' E 023°37'0 0.0
2018-Feb-02 09:00N 37°57' E 023°37'0 0.0
2018-Feb-02 08:29N 37°57' E 023°37'0 0.0
2018-Feb-02 07:59N 37°57' E 023°37'0 0.0
2018-Feb-02 07:30N 37°57' E 023°37'0 0.0
2018-Feb-02 07:00N 37°57' E 023°37'0 0.0
2018-Feb-02 06:30N 37°57' E 023°37'0 0.0
2018-Feb-02 05:58N 37°57' E 023°37'1 1.4
2018-Feb-02 05:30N 37°57' E 023°36'1 1.3
2018-Feb-02 04:59N 37°57' E 023°37'0 0.1
2018-Feb-02 04:29N 37°57' E 023°37'0 0.0
2018-Feb-02 03:59N 37°57' E 023°37'0 0.0
2018-Feb-01 17:15N 37°57' E 023°37'0 1.6
2018-Feb-01 17:00N 37°57' E 023°36'4 7.5
2018-Feb-01 16:31N 38°00' E 023°34'2 4.3
2018-Feb-01 16:01N 38°02' E 023°35'0 0.0
2018-Feb-01 15:31N 38°02' E 023°35'0 0.0
2018-Feb-01 15:01N 38°02' E 023°35'0 0.0
2018-Feb-01 13:29N 38°02' E 023°35'0 0.0
2018-Feb-01 13:00N 38°02' E 023°35'0 0.0
2018-Feb-01 12:30N 38°02' E 023°35'0 0.0
2018-Feb-01 12:00N 38°02' E 023°35'0 0.0
2018-Feb-01 11:00N 38°02' E 023°35'0 0.0
2018-Feb-01 10:30N 38°02' E 023°35'0 0.0
2018-Feb-01 10:00N 38°02' E 023°35'0 0.0
2018-Feb-01 09:30N 38°02' E 023°35'0 0.0
2018-Feb-01 09:01N 38°02' E 023°35'0 0.0
2018-Feb-01 08:30N 38°02' E 023°35'0 0.0
2018-Feb-01 07:30N 38°02' E 023°35'0 0.0
2018-Feb-01 07:01N 38°02' E 023°35'0 0.0
2018-Feb-01 06:30N 38°02' E 023°35'1 1.1
2018-Feb-01 06:00N 38°02' E 023°35'4 7.0
2018-Feb-01 05:30N 37°58' E 023°33'3 6.2
2018-Feb-01 05:00N 37°57' E 023°37'0 0.0
2018-Feb-01 04:29N 37°57' E 023°37'0 0.0
2018-Feb-01 04:00N 37°57' E 023°37'0 0.0
2018-Jan-31 11:12N 37°57' E 023°37'0 0.0
2018-Jan-31 11:00N 37°57' E 023°37'0 0.0
2018-Jan-31 10:30N 37°57' E 023°37'0 0.0
2018-Jan-31 09:59N 37°57' E 023°37'0 0.0
2018-Jan-31 09:30N 37°57' E 023°37'0 0.0
2018-Jan-31 08:57N 37°57' E 023°37'0 0.0
2018-Jan-31 08:29N 37°57' E 023°37'0 0.0
2018-Jan-31 07:59N 37°57' E 023°37'0 0.0
2018-Jan-31 07:29N 37°57' E 023°37'0 0.0
2018-Jan-31 07:00N 37°57' E 023°37'0 0.0
2018-Jan-31 06:26N 37°57' E 023°37'0 0.0
2018-Jan-31 06:00N 37°57' E 023°37'0 0.0
2018-Jan-31 05:29N 37°57' E 023°37'0 0.0
2018-Jan-31 04:59N 37°57' E 023°37'0 0.0
2018-Jan-31 04:30N 37°57' E 023°37'0 0.0
2018-Jan-31 03:54N 37°57' E 023°37'0 0.0
2018-Jan-31 03:29N 37°57' E 023°37'0 0.0
2018-Jan-31 03:00N 37°57' E 023°37'0 0.0
2018-Jan-31 02:27N 37°57' E 023°37'0 0.0
2018-Jan-31 02:00N 37°57' E 023°37'0 0.1
2018-Jan-31 01:30N 37°57' E 023°37'1 1.3
2018-Jan-31 01:00N 37°57' E 023°36'1 0.6
2018-Jan-30 23:55N 37°57' E 023°37'0 0.0
2018-Jan-30 23:30N 37°57' E 023°37'0 0.0
2018-Jan-30 23:00N 37°57' E 023°37'0 0.0
2018-Jan-30 22:28N 37°57' E 023°37'0 0.0
2018-Jan-30 21:28N 37°57' E 023°37'0 0.0
2018-Jan-30 20:59N 37°57' E 023°37'0 0.0
2018-Jan-30 20:27N 37°57' E 023°37'0 0.0
2018-Jan-30 19:59N 37°57' E 023°37'0 0.0
2018-Jan-30 19:29N 37°57' E 023°37'0 0.0
2018-Jan-30 19:00N 37°57' E 023°37'0 0.0
2018-Jan-30 18:30N 37°57' E 023°37'0 0.0
2018-Jan-30 17:58N 37°57' E 023°37'0 0.6
2018-Jan-30 17:30N 37°57' E 023°36'0 0.5
2018-Jan-30 16:58N 37°57' E 023°37'0 0.0
2018-Jan-30 16:15N 37°57' E 023°37'0 0.0
2018-Jan-30 16:00N 37°57' E 023°37'0 0.0
2018-Jan-30 15:30N 37°57' E 023°37'0 0.8
2018-Jan-30 14:59N 37°57' E 023°36'1 1.2
2018-Jan-30 14:30N 37°57' E 023°36'1 0.7
2018-Jan-30 13:30N 37°57' E 023°37'0 0.0
2018-Jan-30 13:00N 37°57' E 023°37'0 0.0
2018-Jan-30 12:30N 37°57' E 023°37'0 0.0
2018-Jan-30 12:00N 37°57' E 023°37'1 1.3
2018-Jan-30 11:30N 37°57' E 023°36'1 0.6
2018-Jan-30 10:30N 37°57' E 023°37'0 0.0
2018-Jan-30 09:30N 37°57' E 023°37'0 0.0
2018-Jan-30 09:00N 37°57' E 023°37'0 0.0
2018-Jan-30 08:30N 37°57' E 023°37'0 0.5
2018-Jan-30 08:00N 37°58' E 023°36'1 1.2
2018-Jan-30 07:30N 37°57' E 023°36'1 1.1
2018-Jan-30 07:00N 37°57' E 023°36'1 1.3
2018-Jan-30 06:30N 37°57' E 023°37'0 0.0
2018-Jan-30 06:00N 37°57' E 023°37'0 0.0
2018-Jan-30 05:30N 37°57' E 023°37'1 1.8
2018-Jan-30 05:00N 37°57' E 023°35'1 1.7
2018-Jan-30 04:30N 37°58' E 023°36'0 0.8
2018-Jan-30 04:00N 37°57' E 023°37'0 0.0
2018-Jan-28 22:15N 37°57' E 023°37'1 2.4
2018-Jan-28 22:00N 37°57' E 023°36'0 0.6
2018-Jan-28 21:30N 37°57' E 023°36'1 1.3
2018-Jan-28 21:00N 37°57' E 023°37'0 0.1
2018-Jan-28 20:30N 37°57' E 023°37'0 0.0
2018-Jan-28 20:00N 37°57' E 023°37'0 0.7
2018-Jan-28 19:30N 37°57' E 023°36'0 0.8
2018-Jan-28 19:00N 37°57' E 023°36'1 1.3
2018-Jan-28 18:30N 37°57' E 023°37'0 0.0
2018-Jan-28 18:00N 37°57' E 023°37'2 3.6
2018-Jan-28 17:30N 37°57' E 023°34'4 7.9
2018-Jan-28 17:00N 38°01' E 023°35'1 1.4
2018-Jan-28 16:30N 38°01' E 023°34'4 7.4
2018-Jan-28 16:00N 37°57' E 023°36'1 1.7
2018-Jan-28 15:30N 37°57' E 023°37'0 0.0
2018-Jan-28 15:00N 37°57' E 023°37'0 0.0
2018-Jan-28 14:30N 37°57' E 023°37'0 0.0
2018-Jan-28 14:00N 37°57' E 023°37'0 0.0
2018-Jan-28 13:30N 37°57' E 023°37'0 0.0
2018-Jan-28 13:00N 37°57' E 023°37'1 2.7
2018-Jan-28 12:30N 37°57' E 023°35'1 1.1
2018-Jan-28 12:00N 37°57' E 023°36'1 1.7
2018-Jan-28 11:30N 37°57' E 023°37'0 0.0
2018-Jan-28 11:00N 37°57' E 023°37'0 0.0
2018-Jan-28 10:30N 37°57' E 023°37'0 0.0
2018-Jan-28 10:00N 37°57' E 023°37'0 0.0
2018-Jan-28 09:30N 37°57' E 023°37'1 2.1
2018-Jan-28 09:00N 37°57' E 023°35'1 2.1
2018-Jan-28 08:30N 37°57' E 023°37'0 0.0
2018-Jan-28 08:00N 37°57' E 023°37'0 0.0
2018-Jan-28 07:30N 37°57' E 023°37'0 0.0
2018-Jan-28 07:00N 37°57' E 023°37'0 0.0
2018-Jan-28 06:30N 37°57' E 023°37'0 0.9
2018-Jan-28 06:00N 37°57' E 023°36'1 1.8
2018-Jan-28 05:30N 37°56' E 023°36'1 1.7
2018-Jan-28 05:00N 37°57' E 023°35'0 0.9
2018-Jan-28 04:30N 37°57' E 023°35'1 2.7
2018-Jan-28 04:00N 37°57' E 023°37'  

Dump ship's entire track history